• Join FlightAware (Why Join?)
  • Login
  • US Flag 
08:48AM EST


 

Airport Tracker/Info


-or-


 

Live Flight TrackerFlight Track Log ✈ UAL1206 ✈ 04-Jul-2013 ✈ KIAH - TJSJ / SJU

Flight Track Log - Related Links

Times and Time Zones

All times are in EDT time to prevent confusion due to time zone crossing. See the UAL1206 flight status page for this flight to view local times or setup timezone preferences in your user account.

Time Position Orientation Groundspeed Altitude Reporting Facility
EDT Latitude Longitude Course Direction KTS MPH feet Rate Location/Type
12:07PM 29.9504 -95.3369 149° Southeast 180 207 1,100  Level FlightAware ADS-B
12:08PM 29.9451 -95.3305 134° Southeast 191 220 1,300 774 Climbing FlightAware ADS-B
12:08PM 29.9314 -95.3114 130° Southeast 213 245 1,500 833 Climbing FlightAware ADS-B
12:08PM 29.9220 -95.2984 130° Southeast 238 274 1,800 2,000 Climbing FlightAware ADS-B
12:09PM 29.9102 -95.2818 129° Southeast 242 278 2,500 2,813 Climbing FlightAware ADS-B
12:09PM 29.8992 -95.2666 130° Southeast 237 273 3,300 2,600 Climbing FlightAware ADS-B
12:09PM 29.8889 -95.2520 129° Southeast 247 284 3,800 1,600 Climbing FlightAware ADS-B
12:09PM 29.8769 -95.2354 130° Southeast 267 307 4,100 2,170 Climbing FlightAware ADS-B
12:10PM 29.8517 -95.2010 130° Southeast 275 316 5,500 2,684 Climbing FlightAware ADS-B
12:11PM 29.8141 -95.1496 130° Southeast 280 322 7,500 2,605 Climbing FlightAware ADS-B
12:11PM 29.7878 -95.1142 131° Southeast 287 330 8,800 2,328 Climbing FlightAware ADS-B
12:12PM 29.7582 -95.0710 125° Southeast 298 343 10,100 2,195 Climbing FlightAware ADS-B
12:12PM 29.7547 -95.0639 120° Southeast 300 345 10,300 1,714 Climbing FlightAware ADS-B
12:12PM 29.7496 -95.0491 110° East 309 356 10,500 1,043 Climbing FlightAware ADS-B
12:12PM 29.7465 -95.0269 96° East 323 372 10,700 1,731 Climbing FlightAware ADS-B
12:14PM 29.7413 -94.8572 92° East 371 427 13,500 1,950 Climbing FlightAware ADS-B
12:14PM 29.7390 -94.7975 93° East 376 433 14,600 2,100 Climbing FlightAware ADS-B
12:15PM 29.7366 -94.7365 93° East 385 443 15,600 1,800 Climbing FlightAware ADS-B
12:15PM 29.7342 -94.6744 93° East 397 457 16,400 1,761 Climbing FlightAware ADS-B
12:16PM 29.7290 -94.5427 93° East 409 471 18,300 1,918 Climbing FlightAware ADS-B
12:17PM 29.7237 -94.4111 93° East 412 474 20,300 1,600 Climbing FlightAware ADS-B
12:18PM 29.7135 -94.2770 97° East 435 501 21,500 1,133 Climbing FlightAware ADS-B
12:19PM 29.7055 -94.2061 97° East 449 517 22,000 1,400 Climbing FlightAware ADS-B
12:19PM 29.6976 -94.1349 97° East 452 520 22,900 1,770 Climbing FlightAware ADS-B
12:20PM 29.6895 -94.0620 97° East 453 521 23,800 1,500 Climbing FlightAware ADS-B
12:21PM 29.6855 -93.8745 91° East 465 535 25,600 1,234 Climbing FlightAware ADS-B
12:22PM 29.6839 -93.7139 91° East 478 550 26,700 1,011 Climbing FlightAware ADS-B
12:23PM 29.6832 -93.6356 91° East 482 555 27,200 1,014 Climbing FlightAware ADS-B
12:23PM 29.6819 -93.5314 91° East 488 562 27,900 975 Climbing FlightAware ADS-B
12:24PM 29.6803 -93.4250 91° East 497 572 28,500 1,011 Climbing FlightAware ADS-B
12:25PM 29.6787 -93.2970 91° East 500 575 29,400 1,161 Climbing FlightAware ADS-B
12:26PM 29.6762 -93.0973 91° East 497 572 30,900 1,220 Climbing FlightAware ADS-B
12:27PM 29.6745 -92.9847 91° East 496 571 31,800 1,200 Climbing FlightAware ADS-B
12:28PM 29.6716 -92.8240 91° East 492 566 33,000 1,000 Climbing FlightAware ADS-B
12:28PM 29.6701 -92.7986 94° East 484 557 33,000  Level FlightAware ADS-B
12:28PM 29.6622 -92.7443 99° East 480 552 33,000  Level FlightAware ADS-B
12:29PM 29.6439 -92.6703 106° East 475 547 33,000  Level FlightAware ADS-B
12:29PM 29.6241 -92.5928 106° East 474 545 33,000  Level FlightAware ADS-B
12:30PM 29.5901 -92.4584 106° East 474 545 33,000  Level FlightAware ADS-B
12:31PM 29.5700 -92.3792 106° East 473 544 33,000  Level FlightAware ADS-B
12:31PM 29.5423 -92.2697 106° East 473 544 33,000  Level FlightAware ADS-B
12:32PM 29.5140 -92.1592 106° East 471 542 33,000  Level FlightAware ADS-B
12:33PM 29.4820 -92.0344 106° East 471 542 33,000  Level FlightAware ADS-B
12:34PM 29.4547 -91.9283 106° East 471 542 33,000  Level FlightAware ADS-B
12:34PM 29.4315 -91.8386 107° East 470 541 33,000  Level FlightAware ADS-B
12:35PM 29.4125 -91.7655 107° East 470 541 33,000  Level FlightAware ADS-B
12:41PM 29.1730 -90.8590 107° East 470 541 33,000  Level FlightAware
12:42PM 29.1540 -90.7820 106° East 470 541 33,000  Level FlightAware
12:43PM 29.1310 -90.6880 106° East 470 541 33,000  Level FlightAware
12:43PM 29.1130 -90.6190 107° East 470 541 33,000  Level FlightAware
12:44PM 29.0890 -90.5210 106° East 470 541 33,000  Level FlightAware
12:45PM 29.0710 -90.4480 106° East 470 541 33,000  Level FlightAware
12:46PM 29.0460 -90.3480 106° East 470 541 33,000  Level FlightAware
12:46PM 29.0270 -90.2750 107° East 470 541 33,000  Level FlightAware
12:47PM 29.0030 -90.1780 106° East 470 541 33,000  Level FlightAware
12:48PM 28.9340 -89.9750 111° Southeast 465 535 33,000  Level FlightAware
12:48PM 28.9130 -89.8990 108° East 466 536 33,000  Level FlightAware
12:49PM 28.8800 -89.7820 108° East 466 536 33,000  Level FlightAware
12:50PM 28.8530 -89.6830 107° East 465 535 33,000  Level FlightAware
12:50PM 28.8290 -89.5980 108° East 466 536 33,000  Level FlightAware
12:51PM 28.8040 -89.5070 107° East 467 537 33,000  Level FlightAware
12:52PM 28.7780 -89.4160 108° East 468 539 33,000  Level FlightAware
12:52PM 28.7360 -89.3130 115° Southeast 450 518 33,000  Level FlightAware
12:53PM 28.6740 -89.2540 140° Southeast 440 506 33,000  Level FlightAware
12:54PM 28.5760 -89.1720 144° Southeast 437 503 33,000  Level FlightAware
12:55PM 28.5000 -89.1090 144° Southeast 435 501 33,000  Level FlightAware
12:55PM 28.4390 -89.0640 147° Southeast 435 501 33,000  Level FlightAware
12:56PM 28.3660 -89.0090 146° Southeast 435 501 33,000  Level FlightAware
12:57PM 28.2970 -88.9590 147° Southeast 437 503 33,000  Level FlightAware
12:58PM 28.2260 -88.9060 147° Southeast 440 506 33,000  Level FlightAware
12:58PM 28.1610 -88.8580 147° Southeast 442 509 33,000  Level FlightAware
12:59PM 28.0860 -88.8030 147° Southeast 443 510 33,000  Level FlightAware
01:00PM 28.0070 -88.7460 147° Southeast 443 510 33,000  Level FlightAware
01:00PM 27.9470 -88.7020 147° Southeast 442 509 33,000  Level FlightAware
01:01PM 27.8810 -88.6520 146° Southeast 441 507 33,000  Level FlightAware
01:02PM 27.8030 -88.5960 148° Southeast 438 504 33,000  Level FlightAware
01:03PM 27.7060 -88.5200 145° Southeast 438 504 33,000  Level FlightAware
01:03PM 27.6550 -88.4790 145° Southeast 438 504 33,000  Level FlightAware
01:04PM 27.5890 -88.4240 144° Southeast 438 504 33,000  Level FlightAware
01:05PM 27.5380 -88.3830 145° Southeast 438 504 33,000  Level FlightAware
01:06PM 27.4730 -88.3290 144° Southeast 438 504 33,000  Level FlightAware
01:06PM 27.4230 -88.2880 144° Southeast 438 504 33,000  Level FlightAware
01:07PM 27.3390 -88.2200 144° Southeast 438 504 33,000  Level FlightAware
01:08PM 27.2710 -88.1640 144° Southeast 438 504 33,000  Level FlightAware
01:09PM 27.2180 -88.1200 144° Southeast 438 504 33,000  Level FlightAware
01:09PM 27.1510 -88.0660 144° Southeast 438 504 33,000  Level FlightAware
01:10PM 27.1010 -88.0250 144° Southeast 438 504 33,000  Level FlightAware
01:11PM 27.0120 -87.9520 144° Southeast 438 504 33,000  Level FlightAware
01:13PM 27.4490 -87.1300 59° Northeast 469 540 33,000  Level FlightAware
01:14PM 27.4660 -87.0560 75° East 469 540 33,000  Level FlightAware
01:14PM 27.4570 -87.0070 102° East 463 533 33,000  Level FlightAware
01:14PM 27.4520 -86.9160 94° East 465 535 33,000 462 Level FlightAware
01:16PM 27.4420 -86.7650 94° East 465 535 33,800 662 Climbing FlightAware
01:17PM 27.4300 -86.5890 94° East 468 539 34,500 436 Climbing FlightAware
01:17PM 27.4250 -86.5100 94° East 467 537 34,600 78 Climbing FlightAware
01:18PM 27.4200 -86.4330 94° East 467 537 34,600  Level FlightAware
01:19PM 27.4150 -86.3550 94° East 467 537 34,600  Level FlightAware
01:19PM 27.4090 -86.2540 94° East 467 537 34,600 282 Level FlightAware
01:20PM 27.3980 -86.1110 95° East 455 524 35,000 316 Climbing FlightAware
01:21PM 27.3920 -86.0260 95° East 454 522 35,000  Level FlightAware
01:22PM 27.3840 -85.8980 94° East 454 522 35,000  Level FlightAware
01:22PM 27.3790 -85.8280 95° East 454 522 35,000  Level FlightAware
01:23PM 27.3750 -85.7520 93° East 454 522 35,000  Level FlightAware
01:24PM 27.3690 -85.6580 94° East 454 522 35,000  Level FlightAware
01:26PM 27.2940 -85.3080 103° East 445 512 35,000  Level FlightAware
01:27PM 27.2560 -85.1470 105° East 448 516 35,000  Level FlightAware
01:28PM 27.2360 -85.0540 104° East 448 516 35,000  Level FlightAware
01:29PM 27.1920 -84.9040 108° East 454 522 35,000  Level FlightAware
01:30PM 27.1660 -84.8010 106° East 456 525 35,000  Level FlightAware
01:30PM 27.1420 -84.7040 106° East 458 527 35,000  Level FlightAware
01:31PM 27.1220 -84.6180 105° East 459 528 35,000  Level FlightAware
01:32PM 27.0920 -84.5110 107° East 468 539 35,000  Level FlightAware
01:32PM 27.0680 -84.4170 106° East 470 541 35,000  Level FlightAware
01:33PM 27.0460 -84.3310 106° East 471 542 35,000  Level FlightAware
01:34PM 27.0270 -84.2590 106° East 471 542 35,000  Level FlightAware
01:34PM 26.9980 -84.1470 106° East 473 544 35,000  Level FlightAware
01:35PM 26.9760 -84.0600 106° East 473 544 35,000  Level FlightAware
01:36PM 26.9500 -83.9610 106° East 476 548 35,000  Level FlightAware
01:36PM 26.9240 -83.8600 106° East 476 548 35,000  Level FlightAware
01:37PM 26.9050 -83.7860 106° East 476 548 35,000  Level FlightAware
01:38PM 26.8800 -83.6890 106° East 476 548 35,000  Level FlightAware
01:38PM 26.8440 -83.5590 107° East 475 547 35,000  Level FlightAware
01:39PM 26.8160 -83.4550 107° East 472 543 35,000  Level FlightAware
01:40PM 26.7950 -83.3710 106° East 472 543 35,000  Level FlightAware
01:41PM 26.7710 -83.2790 106° East 472 543 35,000  Level FlightAware
01:41PM 26.7530 -83.2070 106° East 472 543 35,000  Level FlightAware
01:42PM 26.7070 -83.0440 107° East 466 536 35,000  Level FlightAware
01:43PM 26.6700 -82.9120 107° East 35,000  Level FlightAware
01:44PM 26.6400 -82.7980 106° East 474 545 35,000  Level FlightAware
01:45PM 26.6110 -82.6900 107° East 474 545 35,000  Level FlightAware
01:45PM 26.5850 -82.5990 108° East 474 545 35,000  Level FlightAware
01:46PM 26.5600 -82.5060 107° East 475 547 35,000  Level FlightAware
01:47PM 26.5330 -82.4060 107° East 473 544 35,000  Level FlightAware
01:47PM 26.5030 -82.2990 107° East 472 543 35,000  Level FlightAware
01:48PM 26.4780 -82.2070 107° East 471 542 35,000  Level FlightAware
01:49PM 26.4480 -82.0980 107° East 470 541 35,000  Level FlightAware
01:49PM 26.4230 -82.0100 108° East 469 540 35,000  Level FlightAware
01:50PM 26.3960 -81.9130 107° East 470 541 35,000  Level FlightAware
01:51PM 26.3700 -81.8200 107° East 471 542 35,000  Level FlightAware
01:51PM 26.3370 -81.7280 112° Southeast 475 547 35,000  Level FlightAware
01:52PM 26.2920 -81.6180 115° Southeast 473 544 35,000  Level FlightAware
01:53PM 26.2560 -81.5310 115° Southeast 473 544 35,000  Level FlightAware
01:54PM 26.2180 -81.4390 115° Southeast 475 547 35,000  Level FlightAware
01:54PM 26.1820 -81.3510 114° Southeast 475 547 35,000  Level FlightAware
01:55PM 26.1440 -81.2610 115° Southeast 477 549 35,000  Level FlightAware
01:56PM 26.1030 -81.1610 115° Southeast 480 552 35,000  Level FlightAware
01:56PM 26.0610 -81.0610 115° Southeast 481 554 35,000  Level FlightAware
01:57PM 26.0260 -80.9780 115° Southeast 482 555 35,000  Level FlightAware
01:58PM 25.9790 -80.8660 115° Southeast 483 556 35,000  Level FlightAware
01:58PM 25.9420 -80.7750 114° Southeast 482 555 35,000  Level FlightAware
01:59PM 25.9040 -80.6860 115° Southeast 479 551 35,000  Level FlightAware
02:00PM 26.0250 -80.9750 295° West 485 558 35,000  Level FlightAware
02:01PM 25.8040 -80.4480 115° Southeast 483 556 35,000  Level FlightAware
02:02PM 25.7620 -80.3490 115° Southeast 483 556 35,000  Level FlightAware
02:02PM 25.7220 -80.2550 115° Southeast 484 557 35,000  Level FlightAware
02:03PM 25.6820 -80.1610 115° Southeast 484 557 35,000  Level FlightAware
02:04PM 25.6430 -80.0700 115° Southeast 485 558 35,000  Level FlightAware
02:04PM 25.5980 -79.9720 117° Southeast 487 560 35,000  Level FlightAware
02:05PM 25.5550 -79.8760 116° Southeast 486 559 35,000  Level FlightAware
02:06PM 25.5140 -79.7860 117° Southeast 488 562 35,000  Level FlightAware
02:07PM 25.4730 -79.6970 117° Southeast 487 560 35,000  Level FlightAware
02:07PM 25.4270 -79.5940 116° Southeast 487 560 35,000  Level FlightAware
02:08PM 25.3600 -79.4480 117° Southeast 484 557 35,000  Level FlightAware
02:09PM 25.3250 -79.3710 117° Southeast 484 557 35,000  Level FlightAware
02:10PM 25.2840 -79.2810 117° Southeast 484 557 35,000  Level FlightAware
02:10PM 25.2440 -79.1940 117° Southeast 484 557 35,000  Level FlightAware
02:11PM 25.2020 -79.1040 117° Southeast 483 556 35,000  Level FlightAware
02:12PM 25.1550 -79.0010 117° Southeast 485 558 35,000  Level FlightAware
02:12PM 25.1140 -78.9120 117° Southeast 487 560 35,000  Level FlightAware
02:13PM 25.0720 -78.8220 117° Southeast 492 566 35,000  Level FlightAware
02:14PM 25.0310 -78.7330 117° Southeast 493 567 35,000  Level FlightAware
02:14PM 24.9860 -78.6360 117° Southeast 494 568 35,000  Level FlightAware
02:15PM 24.9430 -78.5440 117° Southeast 495 570 35,000  Level FlightAware
02:16PM 24.8670 -78.3810 117° Southeast 496 571 35,000  Level FlightAware
02:17PM 24.8350 -78.3120 117° Southeast 496 571 35,000  Level FlightAware
02:18PM 24.7930 -78.2200 117° Southeast 496 571 35,000  Level FlightAware
02:18PM 24.7600 -78.1490 117° Southeast 496 571 35,000  Level FlightAware
02:19PM 24.7190 -78.0610 117° Southeast 496 571 35,000  Level FlightAware
02:20PM 24.6860 -77.9900 117° Southeast 496 571 35,000  Level FlightAware
02:20PM 24.6540 -77.9220 117° Southeast 496 571 35,000  Level FlightAware
02:21PM 24.6220 -77.8510 116° Southeast 496 571 35,000  Level FlightAware
02:22PM 24.5780 -77.7570 117° Southeast 496 571 35,000  Level FlightAware
02:22PM 24.5570 -77.7110 117° Southeast 496 571 35,000  Level FlightAware
02:23PM 24.5140 -77.6200 117° Southeast 496 571 35,000  Level FlightAware
02:24PM 24.4830 -77.5510 116° Southeast 496 571 35,000  Level FlightAware
02:24PM 24.4400 -77.4590 117° Southeast 496 571 35,000  Level FlightAware
02:25PM 24.4070 -77.3890 117° Southeast 496 571 35,000  Level FlightAware
02:26PM 24.3750 -77.3180 116° Southeast 496 571 35,000  Level FlightAware
02:27PM 24.0108 -77.1978 116° Southeast 460 529 35,000  Level Miami Center
02:28PM 23.9567 -77.0725 115° Southeast 452 520 35,000  Level Miami Center
02:29PM 23.9006 -76.9497 117° Southeast 447 514 35,000  Level Miami Center
02:30PM 23.8461 -76.8317 117° Southeast 442 509 35,000  Level Miami Center
02:31PM 23.7897 -76.7067 116° Southeast 442 509 35,000  Level Miami Center
02:32PM 23.7350 -76.5864 116° Southeast 442 509 35,000  Level Miami Center
02:33PM 23.6867 -76.4800 116° Southeast 442 509 35,000  Level Miami Center
02:34PM 23.6322 -76.3622 117° Southeast 437 503 35,000  Level Miami Center
02:35PM 23.5481 -76.2650 133° Southeast 437 503 35,000  Level Miami Center
02:36PM 23.4558 -76.1614 134° Southeast 437 503 35,000  Level Miami Center
02:37PM 23.3717 -76.0689 135° Southeast 432 497 35,000  Level Miami Center
02:38PM 23.2833 -75.9767 136° Southeast 432 497 35,000  Level Miami Center
02:39PM 23.1992 -75.8847 135° Southeast 432 497 35,000  Level Miami Center
02:40PM 23.1150 -75.7928 135° Southeast 432 497 35,000  Level Miami Center
02:41PM 23.0328 -75.7008 134° Southeast 432 497 35,000  Level Miami Center
02:42PM 22.9486 -75.6092 135° Southeast 432 497 35,000  Level Miami Center
02:43PM 22.8706 -75.5153 132° Southeast 427 491 35,000  Level Miami Center
02:44PM 22.8172 -75.3986 116° Southeast 427 491 35,000  Level Miami Center
02:45PM 22.7678 -75.2797 114° Southeast 427 491 35,000  Level Miami Center
02:46PM 22.7164 -75.1586 115° Southeast 427 491 35,000  Level Miami Center
02:47PM 22.6650 -75.0400 115° Southeast 432 497 35,000  Level Miami Center
02:48PM 22.6133 -74.9194 115° Southeast 438 504 35,000  Level Miami Center
02:49PM 22.5614 -74.7986 115° Southeast 438 504 35,000  Level Miami Center
02:50PM 22.5117 -74.6758 114° Southeast 438 504 35,000  Level Miami Center
02:51PM 22.4556 -74.5575 117° Southeast 438 504 35,000  Level Miami Center
02:52PM 22.4014 -74.4328 115° Southeast 443 510 35,000  Level Miami Center
02:53PM 22.3494 -74.3125 115° Southeast 443 510 35,000  Level Miami Center
02:54PM 22.2972 -74.1900 115° Southeast 443 510 35,000  Level Miami Center
02:55PM 22.2450 -74.0700 115° Southeast 443 510 35,000  Level Miami Center
02:56PM 22.1925 -73.9456 114° Southeast 443 510 35,000  Level Miami Center
02:57PM 22.1358 -73.8214 116° Southeast 443 510 35,000  Level Miami Center
02:58PM 22.0853 -73.7014 114° Southeast 443 510 35,000  Level Miami Center
02:59PM 22.0283 -73.5775 116° Southeast 443 510 35,000  Level Miami Center
03:00PM 21.9756 -73.4578 115° Southeast 443 510 35,000  Level Miami Center
03:01PM 21.9206 -73.3339 116° Southeast 443 510 35,000  Level Miami Center
03:02PM 21.8697 -73.2125 114° Southeast 443 510 35,000  Level Miami Center
03:03PM 21.8125 -73.0908 117° Southeast 448 516 35,000  Level Miami Center
03:04PM 21.7594 -72.9697 115° Southeast 443 510 35,000  Level Miami Center
03:05PM 21.7039 -72.8483 116° Southeast 443 510 35,000  Level Miami Center
03:06PM 21.6506 -72.7250 115° Southeast 443 510 35,000  Level Miami Center
03:07PM 21.5950 -72.6017 116° Southeast 448 516 35,000  Level Miami Center
03:08PM 21.5394 -72.4808 116° Southeast 448 516 35,000  Level Miami Center
03:09PM 21.4836 -72.3556 116° Southeast 448 516 35,000  Level Miami Center
03:10PM 21.4281 -72.2369 117° Southeast 448 516 35,000  Level Miami Center
03:11PM 21.3764 -72.1164 115° Southeast 448 516 35,000  Level Miami Center
03:12PM 21.3206 -71.9981 117° Southeast 443 510 35,000  Level Miami Center
03:13PM 21.2667 -71.8797 116° Southeast 443 510 35,000  Level Miami Center
03:14PM 21.2128 -71.7639 117° Southeast 443 510 35,000  Level Miami Center
03:15PM 21.1589 -71.6481 116° Southeast 438 504 35,000  Level Miami Center
03:16PM 21.1067 -71.5278 115° Southeast 438 504 35,000  Level Miami Center
03:17PM 21.0506 -71.4100 117° Southeast 438 504 35,000  Level Miami Center
03:18PM 20.9983 -71.2922 115° Southeast 438 504 35,000  Level Miami Center
03:19PM 20.9486 -71.1856 117° Southeast 438 504 35,000  Level Miami Center
03:20PM 20.8961 -71.0681 116° Southeast 438 504 35,000  Level Miami Center
03:21PM 20.8397 -70.9506 117° Southeast 438 504 35,000  Level Miami Center
03:22PM 20.7872 -70.8353 116° Southeast 438 504 35,000  Level Miami Center
03:23PM 20.7347 -70.7181 116° Southeast 438 504 35,000  Level Miami Center
03:24PM 20.6800 -70.6008 117° Southeast 438 504 35,000  Level Miami Center
03:25PM 20.6253 -70.4839 117° Southeast 438 504 35,000  Level Miami Center
03:26PM 20.5703 -70.3669 117° Southeast 438 504 35,000  Level Miami Center
03:27PM 20.5175 -70.2500 116° Southeast 438 504 35,000  Level Miami Center
03:32PM 20.2310 -69.6470 116° Southeast 443 510 35,000  Level FlightAware
03:33PM 20.1690 -69.5120 116° Southeast 443 510 35,000  Level FlightAware
03:34PM 20.1280 -69.4280 117° Southeast 445 512 35,000  Level FlightAware
03:34PM 20.0940 -69.3580 117° Southeast 445 512 35,000  Level FlightAware
03:35PM 20.0570 -69.2810 117° Southeast 445 512 35,000  Level FlightAware
03:36PM 20.0160 -69.1960 117° Southeast 444 511 35,000  Level FlightAware
03:36PM 19.9760 -69.1130 117° Southeast 442 509 35,000  Level FlightAware
03:37PM 19.9390 -69.0350 117° Southeast 440 506 35,000  Level FlightAware
03:38PM 19.9010 -68.9550 117° Southeast 439 505 35,000  Level FlightAware
03:38PM 19.8620 -68.8740 117° Southeast 433 498 35,000  Level FlightAware
03:39PM 19.8270 -68.8020 117° Southeast 430 495 35,000  Level FlightAware
03:40PM 19.7880 -68.7200 117° Southeast 427 491 35,000  Level FlightAware
03:41PM 19.7460 -68.6340 117° Southeast 429 494 35,000  Level FlightAware
03:41PM 19.7100 -68.5600 117° Southeast 430 495 35,000  Level FlightAware
03:42PM 19.6720 -68.4810 117° Southeast 430 495 35,000  Level FlightAware
03:43PM 19.6360 -68.4070 117° Southeast 429 494 35,000  Level FlightAware
03:43PM 19.6010 -68.3360 118° Southeast 429 494 35,000  Level FlightAware
03:44PM 19.5640 -68.2600 117° Southeast 429 494 35,000  Level FlightAware
03:45PM 19.5270 -68.1840 117° Southeast 429 494 35,000 -527 Level FlightAware
03:45PM 19.4810 -68.0900 117° Southeast 433 498 34,200 -913 Descending FlightAware
03:46PM 19.4430 -68.0110 117° Southeast 434 499 33,600 -963 Descending FlightAware
03:47PM 19.4060 -67.9350 117° Southeast 434 499 32,900 -1,000 Descending FlightAware
03:48PM 19.3650 -67.8520 118° Southeast 440 506 32,200 -929 Descending FlightAware
03:48PM 19.3270 -67.7740 117° Southeast 443 510 31,600 -918 Descending FlightAware
03:49PM 19.2850 -67.6890 118° Southeast 447 514 30,900 -1,059 Descending FlightAware
03:50PM 19.2460 -67.6110 118° Southeast 440 506 30,100 -1,663 Descending FlightAware
03:50PM 19.2070 -67.5300 117° Southeast 430 495 28,600 -2,169 Descending FlightAware
03:51PM 19.1700 -67.4540 117° Southeast 424 488 27,100 -2,148 Descending FlightAware
03:52PM 19.1350 -67.3810 117° Southeast 415 478 25,700 -2,071 Descending FlightAware
03:52PM 19.0970 -67.3040 118° Southeast 406 467 24,200 -2,138 Descending FlightAware
03:53PM 19.0590 -67.2270 118° Southeast 397 457 22,600 -2,023 Descending FlightAware
03:54PM 19.0250 -67.1580 118° Southeast 388 447 21,300 -1,952 Descending FlightAware
03:55PM 18.9910 -67.0890 118° Southeast 379 436 19,900 -2,000 Descending FlightAware
03:55PM 18.9590 -67.0240 117° Southeast 370 426 18,600 -1,953 Descending FlightAware
03:56PM 18.9230 -66.9510 118° Southeast 362 417 17,100 -2,023 Descending FlightAware
03:57PM 18.8930 -66.8890 117° Southeast 356 410 15,700 -2,195 Descending FlightAware
03:57PM 18.8620 -66.8260 117° Southeast 339 390 14,100 -2,093 Descending FlightAware
03:58PM 18.8310 -66.7630 117° Southeast 319 367 12,700 -1,655 Descending FlightAware
03:59PM 18.8030 -66.7060 117° Southeast 293 337 11,700 -1,390 Descending FlightAware
03:59PM 18.7790 -66.6580 118° Southeast 284 327 10,800 -1,404 Descending FlightAware
04:00PM 18.7740 -66.6480 118° Southeast 284 327 10,600 -1,400 Descending FlightAware
04:00PM 18.7430 -66.5840 117° Southeast 280 322 9,400 -1,373 Descending FlightAware
04:01PM 18.7230 -66.5460 119° Southeast 276 318 8,700 -1,404 Descending FlightAware
04:01PM 18.7140 -66.5270 117° Southeast 273 314 8,300 -1,317 Descending FlightAware
04:02PM 18.7000 -66.4990 118° Southeast 271 312 7,800 -1,469 Descending FlightAware
04:02PM 18.6850 -66.4710 119° Southeast 269 310 7,100 -1,667 Descending FlightAware
04:02PM 18.6750 -66.4600 134° Southeast 268 308 6,800 -1,756 Descending FlightAware
04:03PM 18.6490 -66.4300 132° Southeast 265 305 5,900 -1,684 Descending FlightAware
04:03PM 18.6260 -66.4060 135° Southeast 258 297 5,200 -1,286 Descending FlightAware
04:04PM 18.6040 -66.3810 133° Southeast 244 281 4,700 -545 Descending FlightAware
04:04PM 18.5860 -66.3610 134° Southeast 244 281 4,700 -857 Level FlightAware
04:06PM 18.5120 -66.2830 135° Southeast 204 235 2,900 -850 Descending FlightAware
04:06PM 18.4930 -66.2630 135° Southeast 206 237 2,900  Level FlightAware
04:06PM 18.4870 -66.2570 137° Southeast 206 237 2,900  Level FlightAware
04:07PM 18.4690 -66.2380 135° Southeast 207 238 2,900 -353 Level FlightAware
04:07PM 18.4540 -66.2170 127° Southeast 202 232 2,600 -857 Descending FlightAware
04:08PM 18.4400 -66.1900 119° Southeast 200 230 2,100 -778 Descending FlightAware
04:08PM 18.4340 -66.1680 106° East 200 230 1,900 -333 Descending FlightAware
04:08PM 18.4340 -66.1570 90° East 199 229 1,900  Level FlightAware
04:09PM 18.4340 -66.1280 90° East 188 216 1,900 -483 Level FlightAware
04:10PM 18.4340 -66.0810 90° East 154 177 1,200 -795 Descending FlightAware
04:10PM 18.4340 -66.0620 90° East 145 167 800 -740 Descending FlightAware
04:11PM 18.4330 -66.0330 92° East 149 171 300 -400 Descending FlightAware
04:11PM 18.4330 -66.0160 90° East 149 171 300  Level FlightAware
04:12PM 18.4340 -65.9980 87° East 51 59 -621 Descending FlightAware
04:12PM 18.4340 -65.9930 90° East 51 59  Level FlightAware